createdAt,value
2022-11-29T00:01:16.328Z,26.40
2022-11-29T00:03:43.801Z,23.30
2022-11-29T00:06:14.728Z,21.80
2022-11-29T00:08:42.556Z,23.37
2022-11-29T00:11:40.237Z,26.80
2022-11-29T00:14:09.427Z,23.33
2022-11-29T00:16:37.083Z,20.80
2022-11-29T00:19:04.300Z,24.73
2022-11-29T00:21:31.228Z,26.03
2022-11-29T00:23:58.043Z,24.23
2022-11-29T00:26:24.919Z,32.50
2022-11-29T00:28:53.177Z,33.10
2022-11-29T00:31:32.080Z,28.03
2022-11-29T00:34:02.351Z,25.80
2022-11-29T00:36:29.863Z,36.27
2022-11-29T00:38:56.866Z,29.63
2022-11-29T00:41:23.843Z,29.23
2022-11-29T00:43:50.951Z,28.03
2022-11-29T00:46:18.025Z,32.70
2022-11-29T00:48:44.933Z,32.90
2022-11-29T00:51:11.982Z,57.20
2022-11-29T00:53:39.333Z,35.43
2022-11-29T00:56:06.945Z,34.03
2022-11-29T00:58:35.109Z,76.60
2022-11-29T01:01:02.096Z,35.43
2022-11-29T01:03:29.035Z,33.70
2022-11-29T01:06:04.213Z,39.63
2022-11-29T01:08:31.519Z,45.20
2022-11-29T01:11:06.669Z,29.03
2022-11-29T01:13:34.752Z,39.70
2022-11-29T01:16:01.852Z,44.63
2022-11-29T01:18:30.626Z,44.33
2022-11-29T01:21:04.184Z,47.57
2022-11-29T01:23:31.318Z,47.77
2022-11-29T01:28:58.976Z,61.50
2022-11-29T01:31:36.078Z,52.93
2022-11-29T01:34:05.303Z,43.17
2022-11-29T01:36:32.564Z,51.53
2022-11-29T01:39:01.268Z,49.47
2022-11-29T01:41:31.269Z,46.23
2022-11-29T01:44:53.991Z,39.97
2022-11-29T01:47:20.992Z,55.23
2022-11-29T01:49:49.960Z,43.23
2022-11-29T01:52:26.229Z,40.60
2022-11-29T01:54:58.312Z,64.30
2022-11-29T01:57:26.035Z,43.33
2022-11-29T01:59:57.798Z,44.07
2022-11-29T02:02:33.927Z,45.60
2022-11-29T02:05:02.590Z,40.37
2022-11-29T02:07:29.661Z,39.50
2022-11-29T02:09:56.765Z,46.03
2022-11-29T02:12:44.574Z,35.47
2022-11-29T02:16:05.392Z,45.67
2022-11-29T02:19:09.802Z,45.53
2022-11-29T02:21:49.195Z,39.73
2022-11-29T02:24:37.431Z,55.23
2022-11-29T02:27:50.154Z,38.00
2022-11-29T02:31:07.333Z,35.60
2022-11-29T02:34:01.888Z,39.53
2022-11-29T02:37:01.371Z,40.17
2022-11-29T02:39:52.205Z,53.37
2022-11-29T02:43:02.507Z,37.53
2022-11-29T02:45:58.733Z,30.10
2022-11-29T02:49:07.741Z,34.77
2022-11-29T02:51:43.002Z,29.60
2022-11-29T02:54:43.090Z,30.83
2022-11-29T02:57:29.565Z,29.80
2022-11-29T03:00:10.970Z,27.80
2022-11-29T03:03:11.601Z,40.33
2022-11-29T03:05:47.298Z,31.47
2022-11-29T03:08:35.564Z,27.93
2022-11-29T03:11:39.503Z,29.77
2022-11-29T03:14:24.689Z,28.67
2022-11-29T03:16:59.095Z,28.70
2022-11-29T03:20:06.763Z,29.47
2022-11-29T03:23:20.140Z,26.17
2022-11-29T03:26:03.540Z,31.40
2022-11-29T03:28:39.578Z,28.00
2022-11-29T03:31:29.066Z,37.37
2022-11-29T03:34:47.683Z,31.47
2022-11-29T03:37:48.492Z,28.50
2022-11-29T03:40:21.325Z,35.60
2022-11-29T03:43:17.382Z,36.57
2022-11-29T03:45:53.853Z,32.33
2022-11-29T03:48:53.326Z,33.40
2022-11-29T03:51:43.200Z,30.93
2022-11-29T03:54:13.218Z,33.60
2022-11-29T03:56:41.484Z,41.83
2022-11-29T03:59:56.365Z,35.03
2022-11-29T04:03:04.875Z,28.87
2022-11-29T04:06:17.973Z,37.40
2022-11-29T04:09:32.454Z,39.63
2022-11-29T04:12:38.121Z,40.00
2022-11-29T04:15:43.738Z,52.00
2022-11-29T04:18:33.048Z,32.63
2022-11-29T04:21:30.199Z,37.33
2022-11-29T04:24:38.761Z,40.50
2022-11-29T04:27:41.569Z,38.40
2022-11-29T04:30:33.738Z,39.73
2022-11-29T04:33:43.376Z,31.03
2022-11-29T04:36:49.157Z,31.60
2022-11-29T04:39:56.570Z,31.70
2022-11-29T04:43:03.085Z,36.37
2022-11-29T04:46:12.311Z,46.93
2022-11-29T04:49:14.807Z,34.43
2022-11-29T04:52:23.661Z,36.70
2022-11-29T04:55:29.290Z,42.37
2022-11-29T04:58:25.677Z,32.57
2022-11-29T05:01:39.170Z,35.77
2022-11-29T05:04:23.973Z,33.87
2022-11-29T05:07:17.492Z,34.10
2022-11-29T05:10:18.428Z,32.50
2022-11-29T05:12:52.069Z,40.20
2022-11-29T05:16:09.920Z,35.00
2022-11-29T05:19:41.627Z,35.60
2022-11-29T05:58:56.403Z,59.00
2022-11-29T06:01:53.883Z,74.23
2022-11-29T06:04:34.362Z,60.67
2022-11-29T06:07:44.699Z,65.60
2022-11-29T06:10:24.510Z,61.30
2022-11-29T06:13:15.282Z,60.60
2022-11-29T06:16:09.869Z,66.20
2022-11-29T06:19:02.077Z,66.90
2022-11-29T06:22:21.495Z,66.03
2022-11-29T06:25:47.162Z,64.57
2022-11-29T06:28:13.955Z,58.33
2022-11-29T06:31:24.864Z,69.50
2022-11-29T06:34:07.606Z,71.97
2022-11-29T06:36:38.380Z,64.77
2022-11-29T06:39:06.097Z,68.93
2022-11-29T06:41:33.477Z,71.90
2022-11-29T06:44:00.803Z,69.97
2022-11-29T06:46:45.536Z,67.73
2022-11-29T06:49:37.798Z,71.27
2022-11-29T06:52:58.838Z,65.13
2022-11-29T06:55:42.973Z,57.50
2022-11-29T06:58:50.935Z,72.93
2022-11-29T07:01:39.951Z,72.53
2022-11-29T07:04:46.382Z,67.97
2022-11-29T07:07:21.784Z,70.10
2022-11-29T07:09:51.701Z,50.97
2022-11-29T07:12:19.231Z,60.47
2022-11-29T07:14:48.250Z,73.03
2022-11-29T07:17:44.206Z,60.47
2022-11-29T07:21:01.279Z,58.23
2022-11-29T07:23:37.345Z,51.40
2022-11-29T07:26:29.466Z,58.07
2022-11-29T07:29:29.578Z,63.90
2022-11-29T07:32:29.617Z,66.00
2022-11-29T07:35:16.297Z,62.33
2022-11-29T07:38:18.647Z,70.53
2022-11-29T07:40:54.990Z,55.83
2022-11-29T07:44:03.327Z,63.07
2022-11-29T07:46:30.277Z,61.87
2022-11-29T07:48:57.185Z,55.33
2022-11-29T07:51:24.104Z,44.23
2022-11-29T07:53:51.174Z,46.40
2022-11-29T07:56:18.189Z,51.10
2022-11-29T07:58:45.177Z,55.37
2022-11-29T08:01:12.772Z,66.30
2022-11-29T08:03:41.860Z,47.13
2022-11-29T08:06:08.875Z,57.20
2022-11-29T08:08:42.371Z,51.20
2022-11-29T08:11:12.565Z,47.77
2022-11-29T08:13:39.673Z,50.27
2022-11-29T08:16:06.971Z,64.70
2022-11-29T08:18:33.848Z,47.87
2022-11-29T08:21:06.376Z,55.73
2022-11-29T08:23:33.433Z,49.63
2022-11-29T08:26:02.024Z,55.73
2022-11-29T08:28:30.564Z,51.23
2022-11-29T08:31:06.785Z,51.80
2022-11-29T08:33:38.447Z,47.40
2022-11-29T08:36:11.851Z,52.87
2022-11-29T08:38:39.095Z,49.07
2022-11-29T08:41:09.094Z,64.73
2022-11-29T08:43:36.478Z,44.63
2022-11-29T08:46:03.699Z,40.93
2022-11-29T08:48:30.663Z,47.87
2022-11-29T08:50:58.245Z,71.63
2022-11-29T08:53:44.744Z,62.80
2022-11-29T08:57:04.549Z,62.80
2022-11-29T08:59:01.963Z,68.03
2022-11-29T09:01:29.626Z,48.03
2022-11-29T09:03:59.777Z,58.63
2022-11-29T09:06:28.644Z,66.00
2022-11-29T09:08:56.761Z,49.60
2022-11-29T09:11:25.279Z,54.10
2022-11-29T09:13:55.226Z,51.80
2022-11-29T09:16:25.535Z,38.30
2022-11-29T09:18:55.224Z,43.20
2022-11-29T09:21:24.955Z,48.70
2022-11-29T09:23:59.311Z,49.07
2022-11-29T09:26:32.091Z,42.07
2022-11-29T09:29:02.741Z,55.10
2022-11-29T09:31:32.288Z,46.63
2022-11-29T09:33:59.734Z,50.30
2022-11-29T09:36:29.473Z,39.90
2022-11-29T09:38:57.489Z,42.33
2022-11-29T09:41:53.615Z,36.23
2022-11-29T09:44:59.417Z,43.87
2022-11-29T09:48:08.766Z,40.53
2022-11-29T09:51:06.505Z,47.53
2022-11-29T09:53:54.516Z,46.33
2022-11-29T09:56:45.597Z,32.90
2022-11-29T09:59:22.917Z,42.70
2022-11-29T10:02:33.600Z,40.27
2022-11-29T10:08:41.432Z,32.87
2022-11-29T10:11:29.978Z,30.50
2022-11-29T10:14:09.390Z,26.00
2022-11-29T10:16:56.578Z,25.93
2022-11-29T10:19:41.302Z,38.47
2022-11-29T10:22:19.482Z,34.33
2022-11-29T10:24:51.850Z,43.77
2022-11-29T10:27:23.979Z,45.27
2022-11-29T10:29:51.810Z,32.30
2022-11-29T10:32:21.723Z,46.50
2022-11-29T10:34:52.362Z,37.40
2022-11-29T10:37:25.285Z,38.20
2022-11-29T10:40:00.705Z,39.37
2022-11-29T10:42:48.081Z,42.03
2022-11-29T10:45:20.998Z,36.87
2022-11-29T10:47:49.612Z,43.40
2022-11-29T10:50:25.413Z,38.43
2022-11-29T10:53:00.873Z,39.00
2022-11-29T10:55:47.560Z,39.00
2022-11-29T10:58:28.381Z,43.33
2022-11-29T11:01:07.074Z,34.57
2022-11-29T11:04:00.657Z,33.43
2022-11-29T11:06:52.410Z,41.90
2022-11-29T11:09:33.751Z,46.13
2022-11-29T11:12:25.807Z,50.27
2022-11-29T11:15:12.319Z,44.00
2022-11-29T11:17:42.329Z,43.30
2022-11-29T11:20:24.146Z,38.83
2022-11-29T11:23:19.921Z,47.60
2022-11-29T11:25:50.133Z,43.50
2022-11-29T11:28:29.582Z,47.17
2022-11-29T11:31:01.723Z,40.43
2022-11-29T11:33:35.464Z,37.83
2022-11-29T11:36:35.525Z,40.10
2022-11-29T11:39:19.354Z,36.70
2022-11-29T11:42:05.832Z,42.37
2022-11-29T11:44:50.237Z,51.10
2022-11-29T11:47:21.727Z,41.07
2022-11-29T11:50:21.256Z,36.80
2022-11-29T11:52:54.099Z,45.80
2022-11-29T11:55:40.720Z,36.53
2022-11-29T11:58:17.391Z,44.37
2022-11-29T12:01:04.088Z,44.83
2022-11-29T12:04:03.485Z,36.43
2022-11-29T12:06:51.724Z,52.23
2022-11-29T12:09:40.841Z,39.60
2022-11-29T12:12:26.212Z,49.70
2022-11-29T12:15:07.615Z,50.30
2022-11-29T12:17:46.735Z,50.90
2022-11-29T12:20:42.477Z,44.63
2022-11-29T12:23:55.644Z,44.47
2022-11-29T12:26:57.105Z,65.57
2022-11-29T12:29:28.850Z,50.53
2022-11-29T12:32:33.703Z,58.93
2022-11-29T12:35:31.607Z,51.50
2022-11-29T12:38:21.167Z,56.07
2022-11-29T12:40:57.098Z,54.93
2022-11-29T12:44:07.706Z,60.30
2022-11-29T12:46:35.589Z,56.77
2022-11-29T12:49:32.875Z,74.70
2022-11-29T12:52:34.538Z,65.63
2022-11-29T12:55:18.406Z,66.23
2022-11-29T12:57:54.222Z,56.80
2022-11-29T13:00:21.784Z,58.90
2022-11-29T13:03:17.730Z,58.07
2022-11-29T13:05:59.605Z,47.23
2022-11-29T13:09:05.330Z,62.53
2022-11-29T13:11:38.286Z,67.03
2022-11-29T13:17:48.540Z,52.80
2022-11-29T13:20:33.419Z,56.97
2022-11-29T13:24:07.765Z,48.43
2022-11-29T13:26:32.660Z,61.10
2022-11-29T13:29:00.769Z,47.63
2022-11-29T13:31:28.518Z,53.20
2022-11-29T13:34:44.973Z,56.43
2022-11-29T13:37:43.648Z,60.03
2022-11-29T13:40:37.156Z,61.73
2022-11-29T13:43:22.547Z,49.77
2022-11-29T13:46:13.571Z,52.77
2022-11-29T13:48:49.519Z,61.47
2022-11-29T13:51:41.395Z,43.07
2022-11-29T13:54:29.191Z,44.47
2022-11-29T13:57:09.798Z,43.13
2022-11-29T13:59:45.753Z,40.17
2022-11-29T14:02:30.558Z,45.13
2022-11-29T14:04:57.889Z,41.87
2022-11-29T14:07:24.970Z,44.87
2022-11-29T14:10:05.934Z,48.67
2022-11-29T14:12:50.465Z,51.00
2022-11-29T14:15:32.734Z,58.03
2022-11-29T14:18:02.991Z,52.97
2022-11-29T14:20:56.632Z,41.20
2022-11-29T14:23:41.798Z,57.77
2022-11-29T14:26:17.449Z,60.97
2022-11-29T14:28:44.401Z,54.87
2022-11-29T14:31:11.850Z,62.63
2022-11-29T14:34:16.399Z,75.80
2022-11-29T14:37:16.047Z,69.40
2022-11-29T14:39:47.128Z,76.23
2022-11-29T14:42:23.217Z,88.80
2022-11-29T14:44:52.493Z,71.97
2022-11-29T14:47:29.889Z,74.97
2022-11-29T14:49:58.672Z,75.93
2022-11-29T14:52:39.601Z,73.23
2022-11-29T14:55:17.022Z,85.37
2022-11-29T14:58:17.519Z,74.00
2022-11-29T15:01:02.807Z,73.90
2022-11-29T15:03:44.332Z,112.17
2022-11-29T15:06:25.154Z,74.17
2022-11-29T15:09:04.850Z,72.87
2022-11-29T15:11:56.248Z,76.47
2022-11-29T15:14:54.423Z,78.43
2022-11-29T15:18:01.055Z,73.00
2022-11-29T15:20:35.252Z,68.43
2022-11-29T15:23:06.231Z,78.53
2022-11-29T15:25:33.994Z,91.13
2022-11-29T15:28:04.082Z,69.67
2022-11-29T15:30:42.634Z,94.90
2022-11-29T15:33:25.306Z,74.03
2022-11-29T15:35:57.209Z,81.57
2022-11-29T15:38:26.276Z,72.60
2022-11-29T15:40:55.963Z,72.43
2022-11-29T15:43:34.997Z,79.53
2022-11-29T15:46:03.567Z,79.90
2022-11-29T15:48:33.937Z,79.13
2022-11-29T15:51:01.918Z,82.03
2022-11-29T15:53:49.871Z,65.77
2022-11-29T15:56:49.403Z,82.53
2022-11-29T15:59:26.077Z,73.03
2022-11-29T16:01:58.166Z,74.40
2022-11-29T16:04:27.363Z,75.87
2022-11-29T16:06:56.430Z,73.10
2022-11-29T16:09:32.868Z,87.47
2022-11-29T16:12:02.431Z,74.97
2022-11-29T16:14:33.146Z,71.63
2022-11-29T16:17:03.393Z,77.20
2022-11-29T16:19:34.887Z,63.00
2022-11-29T16:22:08.029Z,68.30
2022-11-29T16:24:36.864Z,75.33
2022-11-29T16:27:05.991Z,74.70
2022-11-29T16:29:45.262Z,65.50
2022-11-29T16:32:29.113Z,78.00
2022-11-29T16:35:04.553Z,82.67
2022-11-29T16:37:45.144Z,85.10
2022-11-29T16:40:30.491Z,72.87
2022-11-29T16:43:44.819Z,75.63
2022-11-29T16:46:41.496Z,70.20
2022-11-29T16:49:33.481Z,73.73
2022-11-29T16:52:01.712Z,74.90
2022-11-29T16:54:35.001Z,78.27
2022-11-29T16:57:08.044Z,76.10
2022-11-29T16:59:37.601Z,76.20
2022-11-29T17:02:13.834Z,75.40
2022-11-29T17:04:41.734Z,69.13
2022-11-29T17:07:35.551Z,61.77
2022-11-29T17:10:04.471Z,71.63
2022-11-29T17:12:31.691Z,70.40
2022-11-29T17:14:58.577Z,69.50
2022-11-29T17:17:25.911Z,76.30
2022-11-29T17:19:53.294Z,70.57
2022-11-29T17:22:20.214Z,72.90
2022-11-29T17:24:48.468Z,73.60
2022-11-29T17:27:15.787Z,81.87
2022-11-29T17:29:42.804Z,72.20
2022-11-29T17:32:09.977Z,68.10
2022-11-29T17:34:37.595Z,63.53
2022-11-29T17:37:04.746Z,72.63
2022-11-29T17:39:32.552Z,80.50
2022-11-29T17:41:59.625Z,74.63
2022-11-29T17:44:26.594Z,73.63
2022-11-29T17:46:55.816Z,61.57
2022-11-29T17:49:22.871Z,68.50
2022-11-29T17:51:52.670Z,66.10
2022-11-29T17:54:23.783Z,72.63
2022-11-29T17:56:51.226Z,78.87
2022-11-29T17:59:19.735Z,77.37
2022-11-29T18:01:50.037Z,68.07
2022-11-29T18:04:17.317Z,82.50
2022-11-29T18:06:49.681Z,62.80
2022-11-29T18:09:17.939Z,81.77
2022-11-29T18:11:49.315Z,79.60
2022-11-29T18:14:28.306Z,77.20
2022-11-29T18:16:55.505Z,72.50
2022-11-29T18:19:24.482Z,73.60
2022-11-29T18:21:52.998Z,79.37
2022-11-29T18:24:20.463Z,79.03
2022-11-29T18:26:47.601Z,62.70
2022-11-29T18:29:14.632Z,64.67
2022-11-29T18:31:44.861Z,70.77
2022-11-29T18:34:13.611Z,71.87
2022-11-29T18:36:43.251Z,76.27
2022-11-29T18:39:14.165Z,63.37
2022-11-29T18:41:42.890Z,75.03
2022-11-29T18:44:12.235Z,76.73
2022-11-29T18:46:41.673Z,66.17
2022-11-29T18:49:10.229Z,64.37
2022-11-29T18:51:38.714Z,76.00
2022-11-29T18:54:07.027Z,74.00
2022-11-29T18:56:37.414Z,75.33
2022-11-29T18:59:17.357Z,63.77
2022-11-29T19:01:47.786Z,71.03
2022-11-29T19:04:17.722Z,66.60
2022-11-29T19:06:46.616Z,66.47
2022-11-29T19:09:21.258Z,69.00
2022-11-29T19:11:49.977Z,71.80
2022-11-29T19:14:18.776Z,75.13
2022-11-29T19:16:49.714Z,68.57
2022-11-29T19:19:18.853Z,67.40
2022-11-29T19:21:46.266Z,66.30
2022-11-29T19:24:18.107Z,71.87
2022-11-29T19:26:46.956Z,63.63
2022-11-29T19:29:14.639Z,54.30
2022-11-29T19:31:43.999Z,56.00
2022-11-29T19:34:12.743Z,57.73
2022-11-29T19:36:43.664Z,57.63
2022-11-29T19:39:13.553Z,61.07
2022-11-29T19:41:42.555Z,65.37
2022-11-29T19:44:10.761Z,59.10
2022-11-29T19:46:40.656Z,64.40
2022-11-29T19:49:09.671Z,70.07
2022-11-29T19:51:37.636Z,54.13
2022-11-29T19:54:06.770Z,58.80
2022-11-29T19:56:34.963Z,57.27
2022-11-29T19:59:02.615Z,71.90
2022-11-29T20:01:40.111Z,60.03
2022-11-29T20:04:10.505Z,70.57
2022-11-29T20:06:38.795Z,66.87
2022-11-29T20:09:07.950Z,62.73
2022-11-29T20:11:35.411Z,80.67
2022-11-29T20:14:05.030Z,55.10
2022-11-29T20:16:38.062Z,73.23
2022-11-29T20:19:13.226Z,77.87
2022-11-29T20:21:45.868Z,71.00
2022-11-29T20:24:14.637Z,72.93
2022-11-29T20:26:49.767Z,82.90
2022-11-29T20:29:19.465Z,66.90
2022-11-29T20:31:50.729Z,86.07
2022-11-29T20:34:24.684Z,75.07
2022-11-29T20:37:36.311Z,68.40
2022-11-29T20:40:07.636Z,72.10
2022-11-29T20:43:04.671Z,73.13
2022-11-29T20:45:32.193Z,84.77
2022-11-29T20:48:09.622Z,78.83
2022-11-29T20:50:37.097Z,68.77
2022-11-29T20:53:13.026Z,73.13
2022-11-29T20:55:46.298Z,70.67
2022-11-29T20:58:16.284Z,72.33
2022-11-29T21:00:43.605Z,69.90
2022-11-29T21:03:17.963Z,66.50
2022-11-29T21:05:46.646Z,77.70
2022-11-29T21:08:14.946Z,72.73
2022-11-29T21:10:42.570Z,78.30
2022-11-29T21:13:13.872Z,75.17
2022-11-29T21:15:41.700Z,65.53
2022-11-29T21:18:18.716Z,76.00
2022-11-29T21:20:53.466Z,60.23
2022-11-29T21:23:34.597Z,70.67
2022-11-29T21:26:23.143Z,74.07
2022-11-29T21:29:00.084Z,63.87
2022-11-29T21:31:27.706Z,63.97
2022-11-29T21:33:55.998Z,64.13
2022-11-29T21:36:23.031Z,71.13
2022-11-29T21:38:54.873Z,61.97
2022-11-29T21:41:22.807Z,70.63
2022-11-29T21:44:05.981Z,70.57
2022-11-29T21:46:34.620Z,63.57
2022-11-29T21:49:01.808Z,64.37
2022-11-29T21:54:19.807Z,53.03
2022-11-29T21:56:47.964Z,63.70
2022-11-29T21:59:15.105Z,55.40
2022-11-29T22:01:42.218Z,60.70
2022-11-29T22:04:09.664Z,65.00
2022-11-29T22:06:37.196Z,69.83
2022-11-29T22:09:05.308Z,61.23
2022-11-29T22:11:32.886Z,78.50
2022-11-29T22:14:14.674Z,71.30
2022-11-29T22:16:50.000Z,68.57
2022-11-29T22:19:19.301Z,79.43
2022-11-29T22:21:48.954Z,73.07
2022-11-29T22:24:17.973Z,62.03
2022-11-29T22:26:45.738Z,82.50
2022-11-29T22:29:14.777Z,71.17
2022-11-29T22:31:43.496Z,60.97
2022-11-29T22:34:10.868Z,63.37
2022-11-29T22:36:38.966Z,79.07
2022-11-29T22:39:07.615Z,71.80
2022-11-29T22:41:35.673Z,68.63
2022-11-29T22:44:02.961Z,64.50
2022-11-29T22:46:31.357Z,65.50
2022-11-29T22:49:02.769Z,64.07
2022-11-29T22:51:32.043Z,67.07
2022-11-29T22:54:03.086Z,76.63
2022-11-29T22:56:32.591Z,69.70
2022-11-29T22:58:59.621Z,79.40
2022-11-29T23:01:29.130Z,72.33
2022-11-29T23:04:00.715Z,79.60
2022-11-29T23:06:36.592Z,63.57
2022-11-29T23:09:12.022Z,73.67
2022-11-29T23:11:38.998Z,77.43
2022-11-29T23:14:06.009Z,77.47
2022-11-29T23:16:33.623Z,76.80
2022-11-29T23:19:01.366Z,83.20
2022-11-29T23:21:34.206Z,73.30
2022-11-29T23:24:02.725Z,83.73
2022-11-29T23:26:40.476Z,75.70
2022-11-29T23:29:10.248Z,84.60
2022-11-29T23:31:38.717Z,86.27
2022-11-29T23:34:09.554Z,77.03
2022-11-29T23:36:36.585Z,81.53
2022-11-29T23:39:03.927Z,72.23
2022-11-29T23:41:30.911Z,74.83
2022-11-29T23:43:59.748Z,86.63
2022-11-29T23:46:26.961Z,81.53
2022-11-29T23:48:54.079Z,75.17
2022-11-29T23:51:21.224Z,81.80
2022-11-29T23:53:52.487Z,75.63
2022-11-29T23:56:20.308Z,102.13
2022-11-29T23:58:47.759Z,64.80
